< < Back
Terminal Aerodrome Forecast


Current Version              Previous Versions:   1  2  3  4  5  6  7  8  9  

Terminal Aerodrome Forecast

238
FTUS42 KILM 271700
TAFFLO
TAF
KFLO 271725Z 2718/2818 32016G23KT P6SM SCT040
     FM272300 35006KT P6SM SKC
     FM281400 01012KT P6SM SKC=



Latest METAR

788
SAUS70 KWBC 271800 RRI
MTRFLO
METAR KFLO 271753Z 31011G21KT 10SM BKN060 12/00 A3007 RMK AO2 PK WND
32027/1703 SLP181 T01220000 10122 20056 51001


USA.gov is the U.S. government's official web portal to all federal, state and local government web resources and services.